sensor_id;sensor_type;location;lat;lon;timestamp;P1;durP1;ratioP1;P2;durP2;ratioP2
68744;SDS011;73143;45.456;11.064;2024-02-21T00:02:16;57.40;;;31.70;;
68744;SDS011;73143;45.456;11.064;2024-02-21T00:04:53;58.20;;;33.10;;
68744;SDS011;73143;45.456;11.064;2024-02-21T00:07:30;62.50;;;33.80;;
68744;SDS011;73143;45.456;11.064;2024-02-21T00:10:10;59.90;;;33.70;;
68744;SDS011;73143;45.456;11.064;2024-02-21T00:12:48;57.20;;;31.60;;
68744;SDS011;73143;45.456;11.064;2024-02-21T00:15:27;61.90;;;34.20;;
68744;SDS011;73143;45.456;11.064;2024-02-21T00:18:04;57.00;;;32.20;;
68744;SDS011;73143;45.456;11.064;2024-02-21T00:20:43;58.30;;;31.50;;
68744;SDS011;73143;45.456;11.064;2024-02-21T00:23:21;58.20;;;33.40;;
68744;SDS011;73143;45.456;11.064;2024-02-21T00:25:58;53.60;;;31.00;;
68744;SDS011;73143;45.456;11.064;2024-02-21T00:28:35;52.50;;;29.40;;
68744;SDS011;73143;45.456;11.064;2024-02-21T00:31:13;52.00;;;31.30;;
68744;SDS011;73143;45.456;11.064;2024-02-21T00:33:49;53.10;;;30.30;;
68744;SDS011;73143;45.456;11.064;2024-02-21T00:36:26;52.70;;;30.80;;
68744;SDS011;73143;45.456;11.064;2024-02-21T00:39:04;52.00;;;30.10;;
68744;SDS011;73143;45.456;11.064;2024-02-21T00:41:41;58.60;;;30.30;;
68744;SDS011;73143;45.456;11.064;2024-02-21T00:44:18;59.70;;;30.80;;
68744;SDS011;73143;45.456;11.064;2024-02-21T00:46:56;55.50;;;29.40;;
68744;SDS011;73143;45.456;11.064;2024-02-21T00:49:35;51.60;;;29.80;;
68744;SDS011;73143;45.456;11.064;2024-02-21T00:52:13;49.30;;;28.40;;
68744;SDS011;73143;45.456;11.064;2024-02-21T00:54:51;45.80;;;26.30;;
68744;SDS011;73143;45.456;11.064;2024-02-21T00:57:28;48.20;;;27.40;;
68744;SDS011;73143;45.456;11.064;2024-02-21T01:00:08;48.70;;;29.20;;
68744;SDS011;73143;45.456;11.064;2024-02-21T01:02:51;49.80;;;29.00;;
68744;SDS011;73143;45.456;11.064;2024-02-21T01:05:30;49.80;;;27.40;;
68744;SDS011;73143;45.456;11.064;2024-02-21T01:08:11;50.60;;;28.80;;
68744;SDS011;73143;45.456;11.064;2024-02-21T01:10:48;51.40;;;29.60;;
68744;SDS011;73143;45.456;11.064;2024-02-21T01:13:25;55.10;;;29.50;;
68744;SDS011;73143;45.456;11.064;2024-02-21T01:16:05;48.00;;;27.00;;
68744;SDS011;73143;45.456;11.064;2024-02-21T01:18:44;47.00;;;26.50;;
68744;SDS011;73143;45.456;11.064;2024-02-21T01:21:20;47.40;;;28.60;;
68744;SDS011;73143;45.456;11.064;2024-02-21T01:23:58;41.80;;;24.00;;
68744;SDS011;73143;45.456;11.064;2024-02-21T01:26:35;43.00;;;24.90;;
68744;SDS011;73143;45.456;11.064;2024-02-21T01:29:13;45.60;;;25.80;;
68744;SDS011;73143;45.456;11.064;2024-02-21T01:31:50;49.40;;;26.10;;
68744;SDS011;73143;45.456;11.064;2024-02-21T01:34:27;40.70;;;24.00;;
68744;SDS011;73143;45.456;11.064;2024-02-21T01:37:03;38.10;;;22.60;;
68744;SDS011;73143;45.456;11.064;2024-02-21T01:39:40;34.00;;;20.80;;
68744;SDS011;73143;45.456;11.064;2024-02-21T01:42:18;39.30;;;22.30;;
68744;SDS011;73143;45.456;11.064;2024-02-21T01:44:56;37.50;;;21.20;;
68744;SDS011;73143;45.456;11.064;2024-02-21T01:47:34;33.20;;;19.40;;
68744;SDS011;73143;45.456;11.064;2024-02-21T01:50:14;34.90;;;20.20;;
68744;SDS011;73143;45.456;11.064;2024-02-21T01:52:52;31.60;;;19.00;;
68744;SDS011;73143;45.456;11.064;2024-02-21T01:55:31;33.20;;;18.80;;
68744;SDS011;73143;45.456;11.064;2024-02-21T01:58:12;36.60;;;20.80;;
68744;SDS011;73143;45.456;11.064;2024-02-21T02:00:50;30.70;;;18.00;;
68744;SDS011;73143;45.456;11.064;2024-02-21T02:03:28;33.50;;;19.00;;
68744;SDS011;73143;45.456;11.064;2024-02-21T02:06:06;34.90;;;19.10;;
68744;SDS011;73143;45.456;11.064;2024-02-21T02:08:44;31.90;;;17.90;;
68744;SDS011;73143;45.456;11.064;2024-02-21T02:11:22;29.50;;;17.50;;
68744;SDS011;73143;45.456;11.064;2024-02-21T02:13:59;28.80;;;16.60;;
68744;SDS011;73143;45.456;11.064;2024-02-21T02:16:37;26.90;;;16.40;;
68744;SDS011;73143;45.456;11.064;2024-02-21T02:19:14;28.70;;;16.60;;
68744;SDS011;73143;45.456;11.064;2024-02-21T02:21:57;28.30;;;16.70;;
68744;SDS011;73143;45.456;11.064;2024-02-21T02:24:41;29.80;;;16.80;;
68744;SDS011;73143;45.456;11.064;2024-02-21T02:27:18;23.70;;;14.60;;
68744;SDS011;73143;45.456;11.064;2024-02-21T02:29:56;29.40;;;16.30;;
68744;SDS011;73143;45.456;11.064;2024-02-21T02:32:33;28.10;;;16.90;;
68744;SDS011;73143;45.456;11.064;2024-02-21T02:35:11;31.20;;;17.10;;
68744;SDS011;73143;45.456;11.064;2024-02-21T02:37:54;26.60;;;16.20;;
68744;SDS011;73143;45.456;11.064;2024-02-21T02:40:33;25.30;;;15.80;;
68744;SDS011;73143;45.456;11.064;2024-02-21T02:43:13;28.10;;;16.70;;
68744;SDS011;73143;45.456;11.064;2024-02-21T02:45:50;26.90;;;15.80;;
68744;SDS011;73143;45.456;11.064;2024-02-21T02:48:28;26.70;;;15.20;;
68744;SDS011;73143;45.456;11.064;2024-02-21T02:51:06;28.90;;;16.90;;
68744;SDS011;73143;45.456;11.064;2024-02-21T02:53:44;34.90;;;18.20;;
68744;SDS011;73143;45.456;11.064;2024-02-21T02:56:23;39.80;;;17.90;;
68744;SDS011;73143;45.456;11.064;2024-02-21T02:59:01;26.70;;;16.10;;
68744;SDS011;73143;45.456;11.064;2024-02-21T03:01:38;27.30;;;16.00;;
68744;SDS011;73143;45.456;11.064;2024-02-21T03:04:16;30.30;;;17.40;;
68744;SDS011;73143;45.456;11.064;2024-02-21T03:06:53;30.50;;;17.30;;
68744;SDS011;73143;45.456;11.064;2024-02-21T03:09:30;30.30;;;16.90;;
68744;SDS011;73143;45.456;11.064;2024-02-21T03:12:08;28.20;;;17.70;;
68744;SDS011;73143;45.456;11.064;2024-02-21T03:14:53;28.30;;;16.70;;
68744;SDS011;73143;45.456;11.064;2024-02-21T03:17:30;31.30;;;16.90;;
68744;SDS011;73143;45.456;11.064;2024-02-21T03:20:12;27.50;;;16.90;;
68744;SDS011;73143;45.456;11.064;2024-02-21T03:22:50;28.80;;;16.60;;
68744;SDS011;73143;45.456;11.064;2024-02-21T03:25:28;29.20;;;17.20;;
68744;SDS011;73143;45.456;11.064;2024-02-21T03:28:06;33.30;;;17.70;;
68744;SDS011;73143;45.456;11.064;2024-02-21T03:30:44;27.60;;;16.70;;
68744;SDS011;73143;45.456;11.064;2024-02-21T03:33:21;29.70;;;17.90;;
68744;SDS011;73143;45.456;11.064;2024-02-21T03:35:59;26.50;;;16.10;;
68744;SDS011;73143;45.456;11.064;2024-02-21T03:38:37;29.30;;;17.40;;
68744;SDS011;73143;45.456;11.064;2024-02-21T03:41:14;28.10;;;16.70;;
68744;SDS011;73143;45.456;11.064;2024-02-21T03:43:54;27.30;;;17.10;;
68744;SDS011;73143;45.456;11.064;2024-02-21T03:46:31;30.60;;;18.20;;
68744;SDS011;73143;45.456;11.064;2024-02-21T03:49:09;31.50;;;17.90;;
68744;SDS011;73143;45.456;11.064;2024-02-21T03:51:47;29.70;;;17.30;;
68744;SDS011;73143;45.456;11.064;2024-02-21T03:54:24;29.40;;;17.60;;
68744;SDS011;73143;45.456;11.064;2024-02-21T03:57:01;29.00;;;18.10;;
68744;SDS011;73143;45.456;11.064;2024-02-21T03:59:39;31.70;;;19.10;;
68744;SDS011;73143;45.456;11.064;2024-02-21T04:02:17;26.50;;;17.40;;
68744;SDS011;73143;45.456;11.064;2024-02-21T04:04:56;32.10;;;18.50;;
68744;SDS011;73143;45.456;11.064;2024-02-21T04:07:35;31.90;;;19.50;;
68744;SDS011;73143;45.456;11.064;2024-02-21T04:10:17;29.90;;;18.00;;
68744;SDS011;73143;45.456;11.064;2024-02-21T04:12:55;30.70;;;18.70;;
68744;SDS011;73143;45.456;11.064;2024-02-21T04:15:33;30.30;;;17.70;;
68744;SDS011;73143;45.456;11.064;2024-02-21T04:18:11;31.20;;;18.30;;
68744;SDS011;73143;45.456;11.064;2024-02-21T04:20:48;30.10;;;18.40;;
68744;SDS011;73143;45.456;11.064;2024-02-21T04:23:26;33.80;;;19.50;;
68744;SDS011;73143;45.456;11.064;2024-02-21T04:26:03;33.20;;;18.60;;
68744;SDS011;73143;45.456;11.064;2024-02-21T04:28:40;32.80;;;19.00;;
68744;SDS011;73143;45.456;11.064;2024-02-21T04:31:18;36.60;;;19.40;;
68744;SDS011;73143;45.456;11.064;2024-02-21T04:33:56;28.90;;;18.70;;
68744;SDS011;73143;45.456;11.064;2024-02-21T04:36:33;32.60;;;19.30;;
68744;SDS011;73143;45.456;11.064;2024-02-21T04:39:09;28.40;;;17.10;;
68744;SDS011;73143;45.456;11.064;2024-02-21T04:41:47;29.70;;;17.90;;
68744;SDS011;73143;45.456;11.064;2024-02-21T04:44:25;31.80;;;19.30;;
68744;SDS011;73143;45.456;11.064;2024-02-21T04:47:02;33.00;;;19.40;;
68744;SDS011;73143;45.456;11.064;2024-02-21T04:49:40;31.80;;;19.20;;
68744;SDS011;73143;45.456;11.064;2024-02-21T04:52:18;32.10;;;19.20;;
68744;SDS011;73143;45.456;11.064;2024-02-21T04:54:55;28.60;;;18.50;;
68744;SDS011;73143;45.456;11.064;2024-02-21T04:57:32;31.90;;;18.30;;
68744;SDS011;73143;45.456;11.064;2024-02-21T05:00:15;31.40;;;19.30;;
68744;SDS011;73143;45.456;11.064;2024-02-21T05:02:56;30.60;;;17.40;;
68744;SDS011;73143;45.456;11.064;2024-02-21T05:05:33;31.30;;;18.70;;
68744;SDS011;73143;45.456;11.064;2024-02-21T05:08:12;29.60;;;18.60;;
68744;SDS011;73143;45.456;11.064;2024-02-21T05:10:50;34.30;;;19.50;;
68744;SDS011;73143;45.456;11.064;2024-02-21T05:13:28;31.40;;;18.20;;
68744;SDS011;73143;45.456;11.064;2024-02-21T05:16:08;31.30;;;18.80;;
68744;SDS011;73143;45.456;11.064;2024-02-21T05:18:44;29.00;;;18.20;;
68744;SDS011;73143;45.456;11.064;2024-02-21T05:21:22;29.20;;;17.70;;
68744;SDS011;73143;45.456;11.064;2024-02-21T05:24:00;33.00;;;17.80;;
68744;SDS011;73143;45.456;11.064;2024-02-21T05:26:37;32.70;;;18.60;;
68744;SDS011;73143;45.456;11.064;2024-02-21T05:29:13;31.50;;;17.80;;
68744;SDS011;73143;45.456;11.064;2024-02-21T05:32:01;28.10;;;17.20;;
68744;SDS011;73143;45.456;11.064;2024-02-21T05:34:39;31.80;;;18.80;;
68744;SDS011;73143;45.456;11.064;2024-02-21T05:37:17;31.50;;;20.10;;
68744;SDS011;73143;45.456;11.064;2024-02-21T05:39:54;33.90;;;20.10;;
68744;SDS011;73143;45.456;11.064;2024-02-21T05:42:33;32.30;;;19.80;;
68744;SDS011;73143;45.456;11.064;2024-02-21T05:45:12;39.90;;;21.40;;
68744;SDS011;73143;45.456;11.064;2024-02-21T05:47:49;37.90;;;19.70;;
68744;SDS011;73143;45.456;11.064;2024-02-21T05:50:27;36.70;;;21.30;;
68744;SDS011;73143;45.456;11.064;2024-02-21T05:53:04;31.50;;;18.90;;
68744;SDS011;73143;45.456;11.064;2024-02-21T05:55:42;32.60;;;19.70;;
68744;SDS011;73143;45.456;11.064;2024-02-21T05:58:19;29.70;;;18.20;;
68744;SDS011;73143;45.456;11.064;2024-02-21T06:00:59;34.00;;;20.00;;
68744;SDS011;73143;45.456;11.064;2024-02-21T06:03:36;32.30;;;20.40;;
68744;SDS011;73143;45.456;11.064;2024-02-21T06:06:13;32.50;;;19.20;;
68744;SDS011;73143;45.456;11.064;2024-02-21T06:08:49;34.60;;;19.60;;
68744;SDS011;73143;45.456;11.064;2024-02-21T06:11:27;33.60;;;19.40;;
68744;SDS011;73143;45.456;11.064;2024-02-21T06:14:04;36.00;;;20.80;;
68744;SDS011;73143;45.456;11.064;2024-02-21T06:16:42;33.20;;;19.20;;
68744;SDS011;73143;45.456;11.064;2024-02-21T06:19:20;35.90;;;20.50;;
68744;SDS011;73143;45.456;11.064;2024-02-21T06:21:57;34.80;;;20.70;;
68744;SDS011;73143;45.456;11.064;2024-02-21T06:24:39;36.40;;;21.00;;
68744;SDS011;73143;45.456;11.064;2024-02-21T06:27:18;36.60;;;20.60;;
68744;SDS011;73143;45.456;11.064;2024-02-21T06:29:56;34.30;;;20.00;;
68744;SDS011;73143;45.456;11.064;2024-02-21T06:32:34;34.70;;;20.00;;
68744;SDS011;73143;45.456;11.064;2024-02-21T06:35:11;39.40;;;21.40;;
68744;SDS011;73143;45.456;11.064;2024-02-21T06:37:49;34.80;;;20.90;;
68744;SDS011;73143;45.456;11.064;2024-02-21T06:40:27;38.60;;;22.90;;
68744;SDS011;73143;45.456;11.064;2024-02-21T06:43:11;37.80;;;20.70;;
68744;SDS011;73143;45.456;11.064;2024-02-21T06:45:49;38.20;;;23.10;;
68744;SDS011;73143;45.456;11.064;2024-02-21T06:48:28;39.00;;;23.20;;
68744;SDS011;73143;45.456;11.064;2024-02-21T06:51:06;43.20;;;24.60;;
68744;SDS011;73143;45.456;11.064;2024-02-21T06:53:44;41.20;;;24.00;;
68744;SDS011;73143;45.456;11.064;2024-02-21T06:56:22;38.20;;;23.30;;
68744;SDS011;73143;45.456;11.064;2024-02-21T06:59:01;36.30;;;22.00;;
68744;SDS011;73143;45.456;11.064;2024-02-21T07:01:39;36.40;;;21.00;;
68744;SDS011;73143;45.456;11.064;2024-02-21T07:04:19;35.60;;;21.90;;
68744;SDS011;73143;45.456;11.064;2024-02-21T07:06:56;33.80;;;20.40;;
68744;SDS011;73143;45.456;11.064;2024-02-21T07:09:34;35.10;;;21.70;;
68744;SDS011;73143;45.456;11.064;2024-02-21T07:12:11;38.20;;;21.50;;
68744;SDS011;73143;45.456;11.064;2024-02-21T07:14:49;37.10;;;20.50;;
68744;SDS011;73143;45.456;11.064;2024-02-21T07:17:28;36.70;;;21.40;;
68744;SDS011;73143;45.456;11.064;2024-02-21T07:20:08;40.10;;;22.80;;
68744;SDS011;73143;45.456;11.064;2024-02-21T07:22:49;40.40;;;23.10;;
68744;SDS011;73143;45.456;11.064;2024-02-21T07:25:26;40.20;;;23.90;;
68744;SDS011;73143;45.456;11.064;2024-02-21T07:28:04;42.20;;;23.90;;
68744;SDS011;73143;45.456;11.064;2024-02-21T07:30:42;40.30;;;23.10;;
68744;SDS011;73143;45.456;11.064;2024-02-21T07:33:20;39.40;;;22.10;;
68744;SDS011;73143;45.456;11.064;2024-02-21T07:35:57;39.90;;;22.10;;
68744;SDS011;73143;45.456;11.064;2024-02-21T07:38:35;38.20;;;23.20;;
68744;SDS011;73143;45.456;11.064;2024-02-21T07:41:12;42.00;;;24.00;;
68744;SDS011;73143;45.456;11.064;2024-02-21T07:43:49;40.90;;;22.90;;
68744;SDS011;73143;45.456;11.064;2024-02-21T07:46:27;38.10;;;22.10;;
68744;SDS011;73143;45.456;11.064;2024-02-21T07:49:05;42.30;;;23.20;;
68744;SDS011;73143;45.456;11.064;2024-02-21T07:51:43;38.30;;;22.60;;
68744;SDS011;73143;45.456;11.064;2024-02-21T07:54:21;41.20;;;22.60;;
68744;SDS011;73143;45.456;11.064;2024-02-21T07:56:58;37.80;;;22.40;;
68744;SDS011;73143;45.456;11.064;2024-02-21T07:59:35;36.00;;;20.80;;
68744;SDS011;73143;45.456;11.064;2024-02-21T08:02:13;37.80;;;23.20;;
68744;SDS011;73143;45.456;11.064;2024-02-21T08:04:50;38.50;;;22.50;;
68744;SDS011;73143;45.456;11.064;2024-02-21T08:07:28;43.20;;;25.10;;
68744;SDS011;73143;45.456;11.064;2024-02-21T08:10:08;38.40;;;23.70;;
68744;SDS011;73143;45.456;11.064;2024-02-21T08:12:47;40.30;;;25.30;;
68744;SDS011;73143;45.456;11.064;2024-02-21T08:15:24;42.10;;;26.60;;
68744;SDS011;73143;45.456;11.064;2024-02-21T08:18:03;41.90;;;25.40;;
68744;SDS011;73143;45.456;11.064;2024-02-21T08:20:41;42.40;;;26.10;;
68744;SDS011;73143;45.456;11.064;2024-02-21T08:23:23;45.70;;;26.50;;
68744;SDS011;73143;45.456;11.064;2024-02-21T08:26:02;41.30;;;23.40;;
68744;SDS011;73143;45.456;11.064;2024-02-21T08:28:39;46.60;;;23.30;;
68744;SDS011;73143;45.456;11.064;2024-02-21T08:31:22;37.40;;;21.90;;
68744;SDS011;73143;45.456;11.064;2024-02-21T08:34:03;36.20;;;21.40;;
68744;SDS011;73143;45.456;11.064;2024-02-21T08:36:41;41.90;;;22.20;;
68744;SDS011;73143;45.456;11.064;2024-02-21T08:39:19;39.10;;;22.50;;
68744;SDS011;73143;45.456;11.064;2024-02-21T08:41:57;45.80;;;26.80;;
68744;SDS011;73143;45.456;11.064;2024-02-21T08:44:35;41.10;;;26.40;;
68744;SDS011;73143;45.456;11.064;2024-02-21T08:47:15;42.80;;;25.80;;
68744;SDS011;73143;45.456;11.064;2024-02-21T08:49:55;45.00;;;25.30;;
68744;SDS011;73143;45.456;11.064;2024-02-21T08:52:45;40.10;;;22.90;;
68744;SDS011;73143;45.456;11.064;2024-02-21T08:55:22;43.00;;;23.10;;
68744;SDS011;73143;45.456;11.064;2024-02-21T08:58:00;43.80;;;23.20;;
68744;SDS011;73143;45.456;11.064;2024-02-21T09:00:37;41.50;;;22.80;;
68744;SDS011;73143;45.456;11.064;2024-02-21T09:03:14;35.30;;;22.30;;
68744;SDS011;73143;45.456;11.064;2024-02-21T09:05:52;36.30;;;20.90;;
68744;SDS011;73143;45.456;11.064;2024-02-21T09:08:29;37.70;;;21.30;;
68744;SDS011;73143;45.456;11.064;2024-02-21T09:11:09;37.30;;;21.00;;
68744;SDS011;73143;45.456;11.064;2024-02-21T09:13:47;36.30;;;20.20;;
68744;SDS011;73143;45.456;11.064;2024-02-21T09:16:25;35.70;;;21.10;;
68744;SDS011;73143;45.456;11.064;2024-02-21T09:19:03;35.50;;;19.20;;
68744;SDS011;73143;45.456;11.064;2024-02-21T09:21:43;37.70;;;20.60;;
68744;SDS011;73143;45.456;11.064;2024-02-21T09:24:22;39.10;;;21.30;;
68744;SDS011;73143;45.456;11.064;2024-02-21T09:27:00;37.00;;;21.00;;
68744;SDS011;73143;45.456;11.064;2024-02-21T09:29:39;32.50;;;19.60;;
68744;SDS011;73143;45.456;11.064;2024-02-21T09:32:16;34.90;;;17.10;;
68744;SDS011;73143;45.456;11.064;2024-02-21T09:34:54;36.70;;;19.10;;
68744;SDS011;73143;45.456;11.064;2024-02-21T09:37:34;35.70;;;20.00;;
68744;SDS011;73143;45.456;11.064;2024-02-21T09:40:14;41.80;;;21.60;;
68744;SDS011;73143;45.456;11.064;2024-02-21T09:42:56;35.40;;;21.20;;
68744;SDS011;73143;45.456;11.064;2024-02-21T09:45:41;34.70;;;21.40;;
68744;SDS011;73143;45.456;11.064;2024-02-21T09:48:30;33.20;;;20.60;;
68744;SDS011;73143;45.456;11.064;2024-02-21T09:51:17;32.30;;;19.90;;
68744;SDS011;73143;45.456;11.064;2024-02-21T09:53:56;34.00;;;21.20;;
68744;SDS011;73143;45.456;11.064;2024-02-21T09:56:49;33.20;;;21.00;;
68744;SDS011;73143;45.456;11.064;2024-02-21T09:59:27;34.20;;;21.40;;
68744;SDS011;73143;45.456;11.064;2024-02-21T10:02:07;37.20;;;21.50;;
68744;SDS011;73143;45.456;11.064;2024-02-21T10:04:44;35.40;;;20.70;;
68744;SDS011;73143;45.456;11.064;2024-02-21T10:07:21;32.60;;;19.60;;
68744;SDS011;73143;45.456;11.064;2024-02-21T10:10:05;36.90;;;19.10;;
68744;SDS011;73143;45.456;11.064;2024-02-21T10:12:53;34.10;;;20.40;;
68744;SDS011;73143;45.456;11.064;2024-02-21T10:15:31;28.30;;;17.00;;
68744;SDS011;73143;45.456;11.064;2024-02-21T10:18:09;25.00;;;16.00;;
68744;SDS011;73143;45.456;11.064;2024-02-21T10:20:47;28.50;;;16.30;;
68744;SDS011;73143;45.456;11.064;2024-02-21T10:23:43;26.70;;;16.50;;
68744;SDS011;73143;45.456;11.064;2024-02-21T10:26:21;26.60;;;16.90;;
68744;SDS011;73143;45.456;11.064;2024-02-21T10:29:00;29.40;;;17.10;;
68744;SDS011;73143;45.456;11.064;2024-02-21T10:31:38;27.70;;;16.90;;
68744;SDS011;73143;45.456;11.064;2024-02-21T10:34:18;28.60;;;18.00;;
68744;SDS011;73143;45.456;11.064;2024-02-21T10:37:04;32.10;;;18.50;;
68744;SDS011;73143;45.456;11.064;2024-02-21T10:39:42;30.50;;;18.70;;
68744;SDS011;73143;45.456;11.064;2024-02-21T10:42:23;31.40;;;19.30;;
68744;SDS011;73143;45.456;11.064;2024-02-21T10:45:10;32.90;;;20.70;;
68744;SDS011;73143;45.456;11.064;2024-02-21T10:47:52;40.90;;;23.10;;
68744;SDS011;73143;45.456;11.064;2024-02-21T10:50:42;34.50;;;21.40;;
68744;SDS011;73143;45.456;11.064;2024-02-21T10:53:44;38.70;;;23.80;;
68744;SDS011;73143;45.456;11.064;2024-02-21T10:56:31;39.40;;;25.30;;
68744;SDS011;73143;45.456;11.064;2024-02-21T10:59:10;37.90;;;24.30;;
68744;SDS011;73143;45.456;11.064;2024-02-21T11:01:49;44.70;;;27.40;;
68744;SDS011;73143;45.456;11.064;2024-02-21T11:04:30;43.10;;;26.20;;
68744;SDS011;73143;45.456;11.064;2024-02-21T11:07:09;37.80;;;22.90;;
68744;SDS011;73143;45.456;11.064;2024-02-21T11:09:53;44.20;;;27.10;;
68744;SDS011;73143;45.456;11.064;2024-02-21T11:12:35;43.80;;;25.80;;
68744;SDS011;73143;45.456;11.064;2024-02-21T11:15:14;46.30;;;28.20;;
68744;SDS011;73143;45.456;11.064;2024-02-21T11:17:58;41.10;;;25.40;;
68744;SDS011;73143;45.456;11.064;2024-02-21T11:20:36;37.70;;;24.90;;
68744;SDS011;73143;45.456;11.064;2024-02-21T11:23:26;39.80;;;24.80;;
68744;SDS011;73143;45.456;11.064;2024-02-21T11:26:10;38.90;;;23.20;;
68744;SDS011;73143;45.456;11.064;2024-02-21T11:29:01;41.00;;;24.90;;
68744;SDS011;73143;45.456;11.064;2024-02-21T11:31:45;37.90;;;23.90;;
68744;SDS011;73143;45.456;11.064;2024-02-21T11:34:23;43.50;;;26.70;;
68744;SDS011;73143;45.456;11.064;2024-02-21T11:37:00;44.30;;;27.50;;
68744;SDS011;73143;45.456;11.064;2024-02-21T11:39:47;53.40;;;32.20;;
68744;SDS011;73143;45.456;11.064;2024-02-21T11:42:24;60.20;;;34.80;;
68744;SDS011;73143;45.456;11.064;2024-02-21T11:45:01;49.50;;;31.20;;
68744;SDS011;73143;45.456;11.064;2024-02-21T11:47:42;52.80;;;33.10;;
68744;SDS011;73143;45.456;11.064;2024-02-21T11:50:20;56.80;;;34.40;;
68744;SDS011;73143;45.456;11.064;2024-02-21T11:52:58;63.40;;;39.70;;
68744;SDS011;73143;45.456;11.064;2024-02-21T11:55:34;66.50;;;40.10;;
68744;SDS011;73143;45.456;11.064;2024-02-21T11:58:12;67.10;;;40.70;;
68744;SDS011;73143;45.456;11.064;2024-02-21T12:00:49;67.70;;;42.80;;
68744;SDS011;73143;45.456;11.064;2024-02-21T12:03:26;61.30;;;39.60;;
68744;SDS011;73143;45.456;11.064;2024-02-21T12:06:05;55.00;;;36.10;;
68744;SDS011;73143;45.456;11.064;2024-02-21T12:08:47;56.90;;;35.70;;
68744;SDS011;73143;45.456;11.064;2024-02-21T12:11:26;55.20;;;34.60;;
68744;SDS011;73143;45.456;11.064;2024-02-21T12:14:04;62.50;;;36.40;;
68744;SDS011;73143;45.456;11.064;2024-02-21T12:16:41;64.00;;;40.50;;
68744;SDS011;73143;45.456;11.064;2024-02-21T12:19:21;57.40;;;36.90;;
68744;SDS011;73143;45.456;11.064;2024-02-21T12:21:58;61.80;;;39.50;;
68744;SDS011;73143;45.456;11.064;2024-02-21T12:24:40;68.40;;;42.60;;
68744;SDS011;73143;45.456;11.064;2024-02-21T12:27:20;73.00;;;45.10;;
68744;SDS011;73143;45.456;11.064;2024-02-21T12:29:57;71.80;;;43.90;;
68744;SDS011;73143;45.456;11.064;2024-02-21T12:32:42;70.20;;;42.90;;
68744;SDS011;73143;45.456;11.064;2024-02-21T12:35:20;65.90;;;42.00;;
68744;SDS011;73143;45.456;11.064;2024-02-21T12:37:59;64.10;;;39.70;;
68744;SDS011;73143;45.456;11.064;2024-02-21T12:40:36;63.40;;;39.70;;
68744;SDS011;73143;45.456;11.064;2024-02-21T12:43:13;67.70;;;44.10;;
68744;SDS011;73143;45.456;11.064;2024-02-21T12:45:50;68.60;;;42.60;;
68744;SDS011;73143;45.456;11.064;2024-02-21T12:48:27;64.30;;;39.90;;
68744;SDS011;73143;45.456;11.064;2024-02-21T12:51:06;60.70;;;37.20;;
68744;SDS011;73143;45.456;11.064;2024-02-21T12:53:43;66.70;;;40.60;;
68744;SDS011;73143;45.456;11.064;2024-02-21T12:56:22;58.70;;;38.90;;
68744;SDS011;73143;45.456;11.064;2024-02-21T12:59:00;61.40;;;38.10;;
68744;SDS011;73143;45.456;11.064;2024-02-21T13:01:37;62.80;;;38.90;;
68744;SDS011;73143;45.456;11.064;2024-02-21T13:04:16;59.60;;;37.20;;
68744;SDS011;73143;45.456;11.064;2024-02-21T13:06:53;50.50;;;32.10;;
68744;SDS011;73143;45.456;11.064;2024-02-21T13:09:30;50.20;;;32.60;;
68744;SDS011;73143;45.456;11.064;2024-02-21T13:12:09;46.40;;;29.10;;
68744;SDS011;73143;45.456;11.064;2024-02-21T13:14:47;49.50;;;30.60;;
68744;SDS011;73143;45.456;11.064;2024-02-21T13:17:24;48.30;;;31.20;;
68744;SDS011;73143;45.456;11.064;2024-02-21T13:20:05;56.20;;;35.00;;
68744;SDS011;73143;45.456;11.064;2024-02-21T13:22:45;56.60;;;35.40;;
68744;SDS011;73143;45.456;11.064;2024-02-21T13:25:22;56.30;;;36.30;;
68744;SDS011;73143;45.456;11.064;2024-02-21T13:28:00;56.40;;;34.70;;
68744;SDS011;73143;45.456;11.064;2024-02-21T13:30:37;48.50;;;30.70;;
68744;SDS011;73143;45.456;11.064;2024-02-21T13:33:15;52.70;;;31.80;;
68744;SDS011;73143;45.456;11.064;2024-02-21T13:35:52;50.30;;;32.20;;
68744;SDS011;73143;45.456;11.064;2024-02-21T13:38:29;48.10;;;29.70;;
68744;SDS011;73143;45.456;11.064;2024-02-21T13:41:07;46.10;;;30.10;;
68744;SDS011;73143;45.456;11.064;2024-02-21T13:43:45;44.10;;;29.10;;
68744;SDS011;73143;45.456;11.064;2024-02-21T13:46:22;46.60;;;27.10;;
68744;SDS011;73143;45.456;11.064;2024-02-21T13:49:05;43.60;;;25.90;;
68744;SDS011;73143;45.456;11.064;2024-02-21T13:51:42;45.70;;;26.40;;
68744;SDS011;73143;45.456;11.064;2024-02-21T13:54:18;41.40;;;25.80;;
68744;SDS011;73143;45.456;11.064;2024-02-21T13:56:57;41.90;;;26.40;;
68744;SDS011;73143;45.456;11.064;2024-02-21T13:59:34;42.60;;;26.40;;
68744;SDS011;73143;45.456;11.064;2024-02-21T14:02:12;39.70;;;24.80;;
68744;SDS011;73143;45.456;11.064;2024-02-21T14:04:49;37.50;;;24.50;;
68744;SDS011;73143;45.456;11.064;2024-02-21T14:07:27;36.00;;;22.70;;
68744;SDS011;73143;45.456;11.064;2024-02-21T14:10:07;35.60;;;22.80;;
68744;SDS011;73143;45.456;11.064;2024-02-21T14:12:46;39.90;;;24.10;;
68744;SDS011;73143;45.456;11.064;2024-02-21T14:15:22;38.70;;;24.90;;
68744;SDS011;73143;45.456;11.064;2024-02-21T14:17:59;39.60;;;24.20;;
68744;SDS011;73143;45.456;11.064;2024-02-21T14:20:37;35.60;;;22.90;;
68744;SDS011;73143;45.456;11.064;2024-02-21T14:23:14;40.70;;;25.40;;
68744;SDS011;73143;45.456;11.064;2024-02-21T14:25:53;41.80;;;25.30;;
68744;SDS011;73143;45.456;11.064;2024-02-21T14:28:29;40.30;;;26.30;;
68744;SDS011;73143;45.456;11.064;2024-02-21T14:31:08;37.10;;;24.20;;
68744;SDS011;73143;45.456;11.064;2024-02-21T14:33:46;39.60;;;25.40;;
68744;SDS011;73143;45.456;11.064;2024-02-21T14:36:23;37.30;;;22.80;;
68744;SDS011;73143;45.456;11.064;2024-02-21T14:39:00;35.80;;;23.10;;
68744;SDS011;73143;45.456;11.064;2024-02-21T14:41:37;32.90;;;22.40;;
68744;SDS011;73143;45.456;11.064;2024-02-21T14:44:15;36.10;;;23.20;;
68744;SDS011;73143;45.456;11.064;2024-02-21T14:46:52;37.10;;;23.40;;
68744;SDS011;73143;45.456;11.064;2024-02-21T14:49:29;35.90;;;23.10;;
68744;SDS011;73143;45.456;11.064;2024-02-21T14:52:08;35.80;;;21.90;;
68744;SDS011;73143;45.456;11.064;2024-02-21T14:54:45;33.10;;;21.30;;
68744;SDS011;73143;45.456;11.064;2024-02-21T14:57:23;37.00;;;22.70;;
68744;SDS011;73143;45.456;11.064;2024-02-21T15:00:00;34.00;;;20.70;;
68744;SDS011;73143;45.456;11.064;2024-02-21T15:02:40;38.90;;;22.90;;
68744;SDS011;73143;45.456;11.064;2024-02-21T15:05:17;38.20;;;24.30;;
68744;SDS011;73143;45.456;11.064;2024-02-21T15:07:55;38.20;;;23.50;;
68744;SDS011;73143;45.456;11.064;2024-02-21T15:10:34;36.60;;;22.10;;
68744;SDS011;73143;45.456;11.064;2024-02-21T15:13:10;34.10;;;21.60;;
68744;SDS011;73143;45.456;11.064;2024-02-21T15:15:47;35.90;;;23.10;;